Clarksville, Arkansas
Current Conditions -  °F | °C
As of 6:53 AM on Monday 22 Dec 2014 (Local Time) from KRUE Reporting Station
Overcast Overcast  
Wind Chill: 45°   Ceiling: 1200
Heat Index: 48°   Visibility: 10mi
Dew Point: 44°   Wind: 7mph
Humidity: 86%   Direction: 110°ESE
Pressure: 29.7"   Gusts: NA
Location:  35.47°N, 93.47°W
Report Text: KRUE 221253Z AUTO 11006KT 10SM OVC012 09/07 A2970 RMK AO2 SLP054 T00890067
Loading
Personal Weather Stations






























Interactive Weather Map New forecast layout! Learn more

10-Day Weather Forecast

Advertisements
Track Severe Weather on mobile